Hlavní strana
METAR-TAF:

METAR-TAF

Letiště :

Letiště Frédérica Chopina

Varšava, Polsko

zeměpisná šířka: 52-10N, zeměpisná délka: 020-58E, výška: 106 m

Aktuální stav počasí

Zpráva byla vytvořena před 27 minutami, v 04:30 UTC
Východojihovýchodní vítr 3 kt
Teplota 6°C
Vlhkost vzduchu 93%
Tlak 1020 hPa
Viditelnost: 7000 m

METAR: EPWA 180430Z 12003KT 7000 NSC 06/05 Q1020 NOSIG

Čas: 06:57 (04:57 UTC)

Předpověď počasí

Zpráva byla vytvořena před 2 hodinami a 27 minutami, v 02:30 UTC
Předpověď platná od 18 v 03 UTC do 19 v 03 UTC
vítr z různých směrů 2 kt
Viditelnost: 4000 m
kouřmo
Pravděpodobnost 40%
od 18 v 03 UTC do 18 v 07 UTC
Viditelnost: 2000 m
kouřmo
Změna
od 18 v 07 UTC do 18 v 09 UTC
Viditelnost 10 km a více
Žádná oblačnost pod 1500 m, nevyskytují se cumulonimby.

TAF: EPWA 180230Z 1803/1903 VRB02KT 4000 BR NSC PROB40 1803/1807 2000 BR BECMG 1807/1809 CAVOK

Stav a předpovědi počasí z více než 4 000 letišť (zprávy METAR a TAF).

Červené a žluté tečky na mapě představují dostupné meteorologické stanice.

Když kurzor umístíte na tečku, zobrazí se název stanice.

Pak kliknutím zobrazíte stav a předpověď počasí.

Chcete-li změnit mapu, kliknutím na zelené tlačítko se znaménkem +mapu přiblížíte, kliknutím na zelené tlačítko se znaménkem – mapu oddálíte a kliknutím na zelené šipky přejdete na sousední mapy.


METAR-TAF: